sensor_id;sensor_type;location;lat;lon;timestamp;temperature;humidity
46458;DHT22;32155;54.076;12.092;2023-03-24T00:00:16;9.20;99.90
46458;DHT22;32155;54.076;12.092;2023-03-24T00:02:48;9.10;99.90
46458;DHT22;32155;54.076;12.092;2023-03-24T00:05:18;9.20;99.90
46458;DHT22;32155;54.076;12.092;2023-03-24T00:07:44;9.10;99.90
46458;DHT22;32155;54.076;12.092;2023-03-24T00:10:15;9.20;99.90
46458;DHT22;32155;54.076;12.092;2023-03-24T00:12:44;9.10;99.90
46458;DHT22;32155;54.076;12.092;2023-03-24T00:15:13;9.20;99.90
46458;DHT22;32155;54.076;12.092;2023-03-24T00:17:44;9.10;99.90
46458;DHT22;32155;54.076;12.092;2023-03-24T00:20:15;9.10;99.90
46458;DHT22;32155;54.076;12.092;2023-03-24T00:22:47;9.10;99.90
46458;DHT22;32155;54.076;12.092;2023-03-24T00:25:14;9.20;99.90
46458;DHT22;32155;54.076;12.092;2023-03-24T00:27:40;9.10;99.90
46458;DHT22;32155;54.076;12.092;2023-03-24T00:30:10;9.10;99.90
46458;DHT22;32155;54.076;12.092;2023-03-24T00:32:47;9.10;99.90
46458;DHT22;32155;54.076;12.092;2023-03-24T00:35:22;9.20;99.90
46458;DHT22;32155;54.076;12.092;2023-03-24T00:37:48;9.30;99.90
46458;DHT22;32155;54.076;12.092;2023-03-24T00:40:18;9.30;99.90
46458;DHT22;32155;54.076;12.092;2023-03-24T00:42:46;9.20;99.90
46458;DHT22;32155;54.076;12.092;2023-03-24T00:45:17;9.30;99.90
46458;DHT22;32155;54.076;12.092;2023-03-24T00:47:44;9.30;99.90
46458;DHT22;32155;54.076;12.092;2023-03-24T00:50:13;9.30;99.90
46458;DHT22;32155;54.076;12.092;2023-03-24T00:52:40;9.30;99.90
46458;DHT22;32155;54.076;12.092;2023-03-24T00:55:10;9.30;99.90
46458;DHT22;32155;54.076;12.092;2023-03-24T00:57:41;9.30;99.90
46458;DHT22;32155;54.076;12.092;2023-03-24T01:00:14;9.30;99.90
46458;DHT22;32155;54.076;12.092;2023-03-24T01:02:43;9.30;99.90
46458;DHT22;32155;54.076;12.092;2023-03-24T01:05:12;9.30;99.90
46458;DHT22;32155;54.076;12.092;2023-03-24T01:07:39;9.30;99.90
46458;DHT22;32155;54.076;12.092;2023-03-24T01:10:13;9.30;99.90
46458;DHT22;32155;54.076;12.092;2023-03-24T01:12:41;9.30;99.90
46458;DHT22;32155;54.076;12.092;2023-03-24T01:15:12;9.30;99.90
46458;DHT22;32155;54.076;12.092;2023-03-24T01:17:39;9.30;99.90
46458;DHT22;32155;54.076;12.092;2023-03-24T01:20:12;9.40;99.90
46458;DHT22;32155;54.076;12.092;2023-03-24T01:22:39;9.40;99.90
46458;DHT22;32155;54.076;12.092;2023-03-24T01:25:12;9.40;99.90
46458;DHT22;32155;54.076;12.092;2023-03-24T01:27:39;9.40;99.90
46458;DHT22;32155;54.076;12.092;2023-03-24T01:30:06;9.40;99.90
46458;DHT22;32155;54.076;12.092;2023-03-24T01:32:34;9.40;99.90
46458;DHT22;32155;54.076;12.092;2023-03-24T01:35:00;9.50;99.90
46458;DHT22;32155;54.076;12.092;2023-03-24T01:37:26;9.50;99.90
46458;DHT22;32155;54.076;12.092;2023-03-24T01:39:54;9.50;99.90
46458;DHT22;32155;54.076;12.092;2023-03-24T01:42:23;9.50;99.90
46458;DHT22;32155;54.076;12.092;2023-03-24T01:44:52;9.50;99.90
46458;DHT22;32155;54.076;12.092;2023-03-24T01:47:21;9.50;99.90
46458;DHT22;32155;54.076;12.092;2023-03-24T01:49:52;9.60;99.90
46458;DHT22;32155;54.076;12.092;2023-03-24T01:52:25;9.60;99.90
46458;DHT22;32155;54.076;12.092;2023-03-24T01:54:57;9.60;99.90
46458;DHT22;32155;54.076;12.092;2023-03-24T01:57:30;9.60;99.90
46458;DHT22;32155;54.076;12.092;2023-03-24T02:00:00;9.70;99.90
46458;DHT22;32155;54.076;12.092;2023-03-24T02:02:32;9.60;99.90
46458;DHT22;32155;54.076;12.092;2023-03-24T02:05:02;9.70;99.90
46458;DHT22;32155;54.076;12.092;2023-03-24T02:07:54;9.70;99.90
46458;DHT22;32155;54.076;12.092;2023-03-24T02:10:24;9.70;99.90
46458;DHT22;32155;54.076;12.092;2023-03-24T02:12:54;9.70;99.90
46458;DHT22;32155;54.076;12.092;2023-03-24T02:15:21;9.70;99.90
46458;DHT22;32155;54.076;12.092;2023-03-24T02:42:36;9.70;99.90
46458;DHT22;32155;54.076;12.092;2023-03-24T02:50:55;9.80;99.90
46458;DHT22;32155;54.076;12.092;2023-03-24T02:53:33;9.70;99.90
46458;DHT22;32155;54.076;12.092;2023-03-24T02:56:15;9.80;99.90
46458;DHT22;32155;54.076;12.092;2023-03-24T02:58:58;9.80;99.90
46458;DHT22;32155;54.076;12.092;2023-03-24T03:01:38;9.80;99.90
46458;DHT22;32155;54.076;12.092;2023-03-24T03:04:11;9.80;99.90
46458;DHT22;32155;54.076;12.092;2023-03-24T03:06:43;9.80;99.90
46458;DHT22;32155;54.076;12.092;2023-03-24T03:09:14;9.80;99.90
46458;DHT22;32155;54.076;12.092;2023-03-24T03:11:50;9.80;99.90
46458;DHT22;32155;54.076;12.092;2023-03-24T03:14:27;9.80;99.90
46458;DHT22;32155;54.076;12.092;2023-03-24T03:19:49;9.70;99.90
46458;DHT22;32155;54.076;12.092;2023-03-24T03:22:22;9.70;99.90
46458;DHT22;32155;54.076;12.092;2023-03-24T03:24:50;9.70;99.90
46458;DHT22;32155;54.076;12.092;2023-03-24T03:27:23;9.70;99.90
46458;DHT22;32155;54.076;12.092;2023-03-24T03:30:29;9.70;99.90
46458;DHT22;32155;54.076;12.092;2023-03-24T03:32:51;9.70;99.90
46458;DHT22;32155;54.076;12.092;2023-03-24T03:35:45;9.70;99.90
46458;DHT22;32155;54.076;12.092;2023-03-24T03:38:15;9.70;99.90
46458;DHT22;32155;54.076;12.092;2023-03-24T03:40:55;9.70;99.90
46458;DHT22;32155;54.076;12.092;2023-03-24T03:43:25;9.70;99.90
46458;DHT22;32155;54.076;12.092;2023-03-24T03:45:54;9.70;99.90
46458;DHT22;32155;54.076;12.092;2023-03-24T03:48:20;9.70;99.90
46458;DHT22;32155;54.076;12.092;2023-03-24T03:50:46;9.70;99.90
46458;DHT22;32155;54.076;12.092;2023-03-24T03:53:17;9.70;99.90
46458;DHT22;32155;54.076;12.092;2023-03-24T03:55:43;9.70;99.90
46458;DHT22;32155;54.076;12.092;2023-03-24T03:58:10;9.70;99.90
46458;DHT22;32155;54.076;12.092;2023-03-24T04:00:41;9.80;99.90
46458;DHT22;32155;54.076;12.092;2023-03-24T04:08:48;9.90;99.90
46458;DHT22;32155;54.076;12.092;2023-03-24T04:14:10;9.80;99.90
46458;DHT22;32155;54.076;12.092;2023-03-24T04:17:25;9.80;99.90
46458;DHT22;32155;54.076;12.092;2023-03-24T04:20:00;9.80;99.90
46458;DHT22;32155;54.076;12.092;2023-03-24T04:28:41;9.70;99.90
46458;DHT22;32155;54.076;12.092;2023-03-24T04:31:22;9.70;99.90
46458;DHT22;32155;54.076;12.092;2023-03-24T04:33:59;9.70;99.90
46458;DHT22;32155;54.076;12.092;2023-03-24T04:36:37;9.70;99.90
46458;DHT22;32155;54.076;12.092;2023-03-24T04:39:10;9.70;99.90
46458;DHT22;32155;54.076;12.092;2023-03-24T04:41:38;9.70;99.90
46458;DHT22;32155;54.076;12.092;2023-03-24T04:44:06;9.70;99.90
46458;DHT22;32155;54.076;12.092;2023-03-24T04:46:32;9.70;99.90
46458;DHT22;32155;54.076;12.092;2023-03-24T04:48:59;9.70;99.90
46458;DHT22;32155;54.076;12.092;2023-03-24T04:51:27;9.70;99.90
46458;DHT22;32155;54.076;12.092;2023-03-24T04:53:57;9.70;99.90
46458;DHT22;32155;54.076;12.092;2023-03-24T04:56:49;9.70;99.90
46458;DHT22;32155;54.076;12.092;2023-03-24T04:59:16;9.80;99.90
46458;DHT22;32155;54.076;12.092;2023-03-24T05:01:42;9.80;99.90
46458;DHT22;32155;54.076;12.092;2023-03-24T05:04:19;9.80;99.90
46458;DHT22;32155;54.076;12.092;2023-03-24T05:06:47;9.80;99.90
46458;DHT22;32155;54.076;12.092;2023-03-24T05:09:18;9.80;99.90
46458;DHT22;32155;54.076;12.092;2023-03-24T05:11:47;9.80;99.90
46458;DHT22;32155;54.076;12.092;2023-03-24T05:14:13;9.80;99.90
46458;DHT22;32155;54.076;12.092;2023-03-24T05:16:39;9.80;99.90
46458;DHT22;32155;54.076;12.092;2023-03-24T05:19:04;9.80;99.90
46458;DHT22;32155;54.076;12.092;2023-03-24T05:21:31;9.80;99.90
46458;DHT22;32155;54.076;12.092;2023-03-24T05:23:59;9.80;99.90
46458;DHT22;32155;54.076;12.092;2023-03-24T05:26:25;9.80;99.90
46458;DHT22;32155;54.076;12.092;2023-03-24T05:28:53;9.90;99.90
46458;DHT22;32155;54.076;12.092;2023-03-24T05:31:20;9.90;99.90
46458;DHT22;32155;54.076;12.092;2023-03-24T05:33:46;9.90;99.90
46458;DHT22;32155;54.076;12.092;2023-03-24T05:36:13;9.90;99.90
46458;DHT22;32155;54.076;12.092;2023-03-24T05:38:41;9.90;99.90
46458;DHT22;32155;54.076;12.092;2023-03-24T05:41:09;10.00;99.90
46458;DHT22;32155;54.076;12.092;2023-03-24T05:43:34;10.00;99.90
46458;DHT22;32155;54.076;12.092;2023-03-24T05:46:00;10.00;99.90
46458;DHT22;32155;54.076;12.092;2023-03-24T05:48:26;10.00;99.90
46458;DHT22;32155;54.076;12.092;2023-03-24T05:50:53;10.00;99.90
46458;DHT22;32155;54.076;12.092;2023-03-24T05:53:19;10.00;99.90
46458;DHT22;32155;54.076;12.092;2023-03-24T05:55:45;10.10;99.90
46458;DHT22;32155;54.076;12.092;2023-03-24T05:58:11;10.10;99.90
46458;DHT22;32155;54.076;12.092;2023-03-24T06:00:40;10.10;99.90
46458;DHT22;32155;54.076;12.092;2023-03-24T06:03:05;10.10;99.90
46458;DHT22;32155;54.076;12.092;2023-03-24T06:05:33;10.10;99.90
46458;DHT22;32155;54.076;12.092;2023-03-24T06:08:00;10.20;99.90
46458;DHT22;32155;54.076;12.092;2023-03-24T06:10:26;10.10;99.90
46458;DHT22;32155;54.076;12.092;2023-03-24T06:12:53;10.20;99.90
46458;DHT22;32155;54.076;12.092;2023-03-24T06:15:27;10.30;99.90
46458;DHT22;32155;54.076;12.092;2023-03-24T06:17:57;10.30;99.90
46458;DHT22;32155;54.076;12.092;2023-03-24T06:20:25;10.30;99.90
46458;DHT22;32155;54.076;12.092;2023-03-24T06:22:54;10.30;99.90
46458;DHT22;32155;54.076;12.092;2023-03-24T06:25:25;10.30;99.90
46458;DHT22;32155;54.076;12.092;2023-03-24T06:27:52;10.40;99.90
46458;DHT22;32155;54.076;12.092;2023-03-24T06:30:23;10.50;99.90
46458;DHT22;32155;54.076;12.092;2023-03-24T06:32:48;10.50;99.90
46458;DHT22;32155;54.076;12.092;2023-03-24T06:35:16;10.50;99.90
46458;DHT22;32155;54.076;12.092;2023-03-24T06:37:44;10.60;99.90
46458;DHT22;32155;54.076;12.092;2023-03-24T06:40:11;10.60;99.90
46458;DHT22;32155;54.076;12.092;2023-03-24T06:42:41;10.70;99.90
46458;DHT22;32155;54.076;12.092;2023-03-24T06:45:09;10.80;99.90
46458;DHT22;32155;54.076;12.092;2023-03-24T06:47:35;10.80;99.90
46458;DHT22;32155;54.076;12.092;2023-03-24T06:50:05;10.80;99.90
46458;DHT22;32155;54.076;12.092;2023-03-24T06:52:33;10.80;99.90
46458;DHT22;32155;54.076;12.092;2023-03-24T06:55:02;10.80;99.90
46458;DHT22;32155;54.076;12.092;2023-03-24T06:57:28;10.80;99.90
46458;DHT22;32155;54.076;12.092;2023-03-24T06:59:55;10.90;99.90
46458;DHT22;32155;54.076;12.092;2023-03-24T07:02:21;11.00;99.90
46458;DHT22;32155;54.076;12.092;2023-03-24T07:04:49;11.00;99.90
46458;DHT22;32155;54.076;12.092;2023-03-24T07:07:18;11.00;99.90
46458;DHT22;32155;54.076;12.092;2023-03-24T07:09:46;10.90;99.90
46458;DHT22;32155;54.076;12.092;2023-03-24T07:12:12;10.90;99.90
46458;DHT22;32155;54.076;12.092;2023-03-24T07:14:40;10.90;99.90
46458;DHT22;32155;54.076;12.092;2023-03-24T07:17:08;11.00;99.90
46458;DHT22;32155;54.076;12.092;2023-03-24T07:19:34;11.00;99.90
46458;DHT22;32155;54.076;12.092;2023-03-24T07:22:00;11.10;99.90
46458;DHT22;32155;54.076;12.092;2023-03-24T07:24:26;11.10;99.90
46458;DHT22;32155;54.076;12.092;2023-03-24T07:26:53;11.20;99.90
46458;DHT22;32155;54.076;12.092;2023-03-24T07:29:19;11.30;99.90
46458;DHT22;32155;54.076;12.092;2023-03-24T07:31:45;11.40;99.90
46458;DHT22;32155;54.076;12.092;2023-03-24T07:34:15;11.40;99.90
46458;DHT22;32155;54.076;12.092;2023-03-24T07:36:44;11.50;99.90
46458;DHT22;32155;54.076;12.092;2023-03-24T07:39:13;11.50;99.90
46458;DHT22;32155;54.076;12.092;2023-03-24T07:41:41;11.50;99.90
46458;DHT22;32155;54.076;12.092;2023-03-24T07:44:07;11.50;99.90
46458;DHT22;32155;54.076;12.092;2023-03-24T07:46:35;11.50;99.90
46458;DHT22;32155;54.076;12.092;2023-03-24T07:49:02;11.50;99.90
46458;DHT22;32155;54.076;12.092;2023-03-24T07:51:28;11.50;99.90
46458;DHT22;32155;54.076;12.092;2023-03-24T07:53:53;11.40;99.90
46458;DHT22;32155;54.076;12.092;2023-03-24T07:56:22;11.40;99.90
46458;DHT22;32155;54.076;12.092;2023-03-24T07:58:48;11.40;99.90
46458;DHT22;32155;54.076;12.092;2023-03-24T08:01:17;11.40;99.90
46458;DHT22;32155;54.076;12.092;2023-03-24T08:03:42;11.40;99.90
46458;DHT22;32155;54.076;12.092;2023-03-24T08:06:08;11.40;99.90
46458;DHT22;32155;54.076;12.092;2023-03-24T08:08:40;11.40;99.90
46458;DHT22;32155;54.076;12.092;2023-03-24T08:11:06;11.50;99.90
46458;DHT22;32155;54.076;12.092;2023-03-24T08:13:34;11.60;99.90
46458;DHT22;32155;54.076;12.092;2023-03-24T08:16:00;11.60;99.90
46458;DHT22;32155;54.076;12.092;2023-03-24T08:18:27;11.70;99.90
46458;DHT22;32155;54.076;12.092;2023-03-24T08:20:58;11.80;99.90
46458;DHT22;32155;54.076;12.092;2023-03-24T08:23:26;11.80;99.90
46458;DHT22;32155;54.076;12.092;2023-03-24T08:25:51;11.70;99.90
46458;DHT22;32155;54.076;12.092;2023-03-24T08:28:17;11.70;99.90
46458;DHT22;32155;54.076;12.092;2023-03-24T08:30:43;11.70;99.90
46458;DHT22;32155;54.076;12.092;2023-03-24T08:33:10;11.70;99.90
46458;DHT22;32155;54.076;12.092;2023-03-24T08:35:36;11.70;99.90
46458;DHT22;32155;54.076;12.092;2023-03-24T08:38:06;11.70;99.90
46458;DHT22;32155;54.076;12.092;2023-03-24T08:40:40;11.80;99.90
46458;DHT22;32155;54.076;12.092;2023-03-24T08:43:08;11.80;99.90
46458;DHT22;32155;54.076;12.092;2023-03-24T08:45:39;12.10;99.90
46458;DHT22;32155;54.076;12.092;2023-03-24T08:48:08;12.10;99.90
46458;DHT22;32155;54.076;12.092;2023-03-24T08:50:39;12.20;99.90
46458;DHT22;32155;54.076;12.092;2023-03-24T08:53:06;12.20;99.90
46458;DHT22;32155;54.076;12.092;2023-03-24T08:55:34;12.10;99.90
46458;DHT22;32155;54.076;12.092;2023-03-24T08:58:02;12.20;99.90
46458;DHT22;32155;54.076;12.092;2023-03-24T09:00:32;12.10;99.90
46458;DHT22;32155;54.076;12.092;2023-03-24T09:03:04;12.20;99.90
46458;DHT22;32155;54.076;12.092;2023-03-24T09:05:33;12.20;99.90
46458;DHT22;32155;54.076;12.092;2023-03-24T09:08:01;12.30;99.90
46458;DHT22;32155;54.076;12.092;2023-03-24T09:10:27;12.20;99.90
46458;DHT22;32155;54.076;12.092;2023-03-24T09:12:55;12.30;99.90
46458;DHT22;32155;54.076;12.092;2023-03-24T09:15:21;12.30;99.90
46458;DHT22;32155;54.076;12.092;2023-03-24T09:17:47;12.20;99.90
46458;DHT22;32155;54.076;12.092;2023-03-24T09:20:14;12.20;99.90
46458;DHT22;32155;54.076;12.092;2023-03-24T09:22:41;12.20;99.90
46458;DHT22;32155;54.076;12.092;2023-03-24T09:25:10;12.30;99.90
46458;DHT22;32155;54.076;12.092;2023-03-24T09:27:42;12.60;99.90
46458;DHT22;32155;54.076;12.092;2023-03-24T09:30:08;13.70;99.90
46458;DHT22;32155;54.076;12.092;2023-03-24T09:32:35;14.60;99.90
46458;DHT22;32155;54.076;12.092;2023-03-24T09:35:01;14.80;99.90
46458;DHT22;32155;54.076;12.092;2023-03-24T09:37:40;14.80;99.90
46458;DHT22;32155;54.076;12.092;2023-03-24T09:40:11;14.70;99.90
46458;DHT22;32155;54.076;12.092;2023-03-24T09:42:41;15.70;99.90
46458;DHT22;32155;54.076;12.092;2023-03-24T09:45:12;17.90;99.90
46458;DHT22;32155;54.076;12.092;2023-03-24T09:48:10;18.00;99.90
46458;DHT22;32155;54.076;12.092;2023-03-24T09:53:59;22.20;99.90
46458;DHT22;32155;54.076;12.092;2023-03-24T09:56:29;24.40;99.90
46458;DHT22;32155;54.076;12.092;2023-03-24T09:59:07;23.80;99.90
46458;DHT22;32155;54.076;12.092;2023-03-24T10:01:44;24.60;99.90
46458;DHT22;32155;54.076;12.092;2023-03-24T10:04:18;23.00;99.90
46458;DHT22;32155;54.076;12.092;2023-03-24T10:09:49;21.00;99.90
46458;DHT22;32155;54.076;12.092;2023-03-24T10:12:35;21.00;99.90
46458;DHT22;32155;54.076;12.092;2023-03-24T10:18:05;26.80;99.90
46458;DHT22;32155;54.076;12.092;2023-03-24T10:20:54;26.80;99.30
46458;DHT22;32155;54.076;12.092;2023-03-24T10:29:32;29.10;92.20
46458;DHT22;32155;54.076;12.092;2023-03-24T10:32:17;26.20;92.50
46458;DHT22;32155;54.076;12.092;2023-03-24T10:34:49;24.20;92.90
46458;DHT22;32155;54.076;12.092;2023-03-24T10:37:19;21.50;98.20
46458;DHT22;32155;54.076;12.092;2023-03-24T10:39:45;21.30;99.80
46458;DHT22;32155;54.076;12.092;2023-03-24T10:42:31;19.50;99.90
46458;DHT22;32155;54.076;12.092;2023-03-24T10:44:57;18.00;99.90
46458;DHT22;32155;54.076;12.092;2023-03-24T10:47:27;17.30;99.90
46458;DHT22;32155;54.076;12.092;2023-03-24T10:50:04;17.90;99.90
46458;DHT22;32155;54.076;12.092;2023-03-24T10:52:38;22.10;99.90
46458;DHT22;32155;54.076;12.092;2023-03-24T17:08:15;12.60;99.90
46458;DHT22;32155;54.076;12.092;2023-03-24T17:10:46;12.40;99.90
46458;DHT22;32155;54.076;12.092;2023-03-24T17:13:17;12.40;99.90
46458;DHT22;32155;54.076;12.092;2023-03-24T17:15:43;12.40;99.90
46458;DHT22;32155;54.076;12.092;2023-03-24T17:18:09;12.20;99.90
46458;DHT22;32155;54.076;12.092;2023-03-24T17:20:37;12.10;99.90
46458;DHT22;32155;54.076;12.092;2023-03-24T17:23:29;12.00;99.90
46458;DHT22;32155;54.076;12.092;2023-03-24T17:44:19;11.40;99.90
46458;DHT22;32155;54.076;12.092;2023-03-24T17:48:00;11.30;99.90
46458;DHT22;32155;54.076;12.092;2023-03-24T17:55:15;11.00;99.90
46458;DHT22;32155;54.076;12.092;2023-03-24T18:05:24;10.60;99.90
46458;DHT22;32155;54.076;12.092;2023-03-24T18:11:33;10.30;99.90
46458;DHT22;32155;54.076;12.092;2023-03-24T18:21:31;9.90;99.90
46458;DHT22;32155;54.076;12.092;2023-03-24T18:24:47;9.90;99.90
46458;DHT22;32155;54.076;12.092;2023-03-24T18:27:56;9.70;99.90
46458;DHT22;32155;54.076;12.092;2023-03-24T18:37:30;9.50;99.90
46458;DHT22;32155;54.076;12.092;2023-03-24T18:41:02;9.40;99.90
46458;DHT22;32155;54.076;12.092;2023-03-24T18:51:26;9.40;99.90
46458;DHT22;32155;54.076;12.092;2023-03-24T18:58:10;9.30;99.90
46458;DHT22;32155;54.076;12.092;2023-03-24T19:00:49;9.30;99.90
46458;DHT22;32155;54.076;12.092;2023-03-24T19:03:24;9.50;99.90
46458;DHT22;32155;54.076;12.092;2023-03-24T19:06:20;9.60;99.90
46458;DHT22;32155;54.076;12.092;2023-03-24T19:08:52;9.60;99.90
46458;DHT22;32155;54.076;12.092;2023-03-24T19:11:56;9.70;99.90
46458;DHT22;32155;54.076;12.092;2023-03-24T19:15:37;9.70;99.90
46458;DHT22;32155;54.076;12.092;2023-03-24T19:18:35;10.00;99.90
46458;DHT22;32155;54.076;12.092;2023-03-24T19:21:45;10.10;99.90
46458;DHT22;32155;54.076;12.092;2023-03-24T19:24:42;10.10;99.90
46458;DHT22;32155;54.076;12.092;2023-03-24T19:27:32;10.10;99.90
46458;DHT22;32155;54.076;12.092;2023-03-24T19:30:21;10.10;99.90
46458;DHT22;32155;54.076;12.092;2023-03-24T19:33:00;10.20;99.90
46458;DHT22;32155;54.076;12.092;2023-03-24T19:35:36;10.30;99.90
46458;DHT22;32155;54.076;12.092;2023-03-24T19:39:00;10.30;99.90
46458;DHT22;32155;54.076;12.092;2023-03-24T19:41:42;10.30;99.90
46458;DHT22;32155;54.076;12.092;2023-03-24T19:44:17;10.30;99.90
46458;DHT22;32155;54.076;12.092;2023-03-24T19:47:04;10.30;99.90
46458;DHT22;32155;54.076;12.092;2023-03-24T19:50:07;10.30;99.90
46458;DHT22;32155;54.076;12.092;2023-03-24T19:53:31;10.20;99.90
46458;DHT22;32155;54.076;12.092;2023-03-24T20:17:55;9.90;99.90
46458;DHT22;32155;54.076;12.092;2023-03-24T20:21:21;9.90;99.90
46458;DHT22;32155;54.076;12.092;2023-03-24T20:24:40;9.80;99.90
46458;DHT22;32155;54.076;12.092;2023-03-24T20:28:18;9.80;99.90
46458;DHT22;32155;54.076;12.092;2023-03-24T20:31:29;9.70;99.90
46458;DHT22;32155;54.076;12.092;2023-03-24T20:34:25;9.70;99.90
46458;DHT22;32155;54.076;12.092;2023-03-24T20:37:12;9.70;99.90
46458;DHT22;32155;54.076;12.092;2023-03-24T20:40:15;9.70;99.90
46458;DHT22;32155;54.076;12.092;2023-03-24T20:50:02;9.60;99.90
46458;DHT22;32155;54.076;12.092;2023-03-24T20:53:06;9.60;99.90
46458;DHT22;32155;54.076;12.092;2023-03-24T20:56:23;9.50;99.90
46458;DHT22;32155;54.076;12.092;2023-03-24T20:59:30;9.40;99.90
46458;DHT22;32155;54.076;12.092;2023-03-24T21:02:30;9.40;99.90
46458;DHT22;32155;54.076;12.092;2023-03-24T21:05:37;9.40;99.90
46458;DHT22;32155;54.076;12.092;2023-03-24T21:09:17;9.30;99.90
46458;DHT22;32155;54.076;12.092;2023-03-24T21:12:27;9.30;99.90
46458;DHT22;32155;54.076;12.092;2023-03-24T21:15:27;9.30;99.90
46458;DHT22;32155;54.076;12.092;2023-03-24T21:18:22;9.20;99.90
46458;DHT22;32155;54.076;12.092;2023-03-24T21:21:08;9.20;99.90
46458;DHT22;32155;54.076;12.092;2023-03-24T21:24:17;9.10;99.90
46458;DHT22;32155;54.076;12.092;2023-03-24T21:35:07;8.90;99.90
46458;DHT22;32155;54.076;12.092;2023-03-24T22:00:33;8.70;99.90
46458;DHT22;32155;54.076;12.092;2023-03-24T22:10:26;8.50;99.90
46458;DHT22;32155;54.076;12.092;2023-03-24T22:27:31;8.50;99.90
46458;DHT22;32155;54.076;12.092;2023-03-24T22:34:57;8.50;99.90
46458;DHT22;32155;54.076;12.092;2023-03-24T22:49:17;8.40;99.90
46458;DHT22;32155;54.076;12.092;2023-03-24T22:52:51;8.40;99.90
46458;DHT22;32155;54.076;12.092;2023-03-24T22:56:30;8.30;99.90
46458;DHT22;32155;54.076;12.092;2023-03-24T23:13:48;8.10;99.90
46458;DHT22;32155;54.076;12.092;2023-03-24T23:21:03;8.10;99.90
46458;DHT22;32155;54.076;12.092;2023-03-24T23:24:31;8.10;99.90
46458;DHT22;32155;54.076;12.092;2023-03-24T23:27:19;8.00;99.90
46458;DHT22;32155;54.076;12.092;2023-03-24T23:29:45;8.00;99.90
46458;DHT22;32155;54.076;12.092;2023-03-24T23:32:11;8.00;99.90
46458;DHT22;32155;54.076;12.092;2023-03-24T23:34:37;8.00;99.90
46458;DHT22;32155;54.076;12.092;2023-03-24T23:37:08;8.00;99.90
46458;DHT22;32155;54.076;12.092;2023-03-24T23:39:34;8.00;99.90
46458;DHT22;32155;54.076;12.092;2023-03-24T23:42:03;7.90;99.90
46458;DHT22;32155;54.076;12.092;2023-03-24T23:44:32;8.00;99.90
46458;DHT22;32155;54.076;12.092;2023-03-24T23:47:00;7.90;99.90
46458;DHT22;32155;54.076;12.092;2023-03-24T23:49:26;7.90;99.90
46458;DHT22;32155;54.076;12.092;2023-03-24T23:51:51;7.90;99.90
46458;DHT22;32155;54.076;12.092;2023-03-24T23:54:17;7.90;99.90
46458;DHT22;32155;54.076;12.092;2023-03-24T23:56:53;7.80;99.90
46458;DHT22;32155;54.076;12.092;2023-03-24T23:59:19;7.90;99.90
